Time;durP1;ratioP1;P1;durP2;ratioP2;P2;SDS_P1;SDS_P2;PMS_P1;PMS_P2;Temp;Humidity;BMP_temperature;BMP_pressure;BME280_temperature;BME280_humidity;BME280_pressure;Samples;Min_cycle;Max_cycle;Signal;HPM_P1;HPM_P2
2022/07/03 00:01:50;;;;;;;5.75;3.90;;;;;;;21.24;68.79;101563.03;4996168;28;104097;-49
2022/07/03 00:04:18;;;;;;;4.40;3.95;;;;;;;21.23;68.64;101564.97;4996034;28;102265;-47
2022/07/03 00:06:47;;;;;;;4.38;3.97;;;;;;;21.23;68.65;101556.69;4995383;28;102426;-47
2022/07/03 00:09:14;;;;;;;8.00;4.30;;;;;;;21.23;68.75;101555.88;4977487;28;102418;-47
2022/07/03 00:11:42;;;;;;;5.38;4.25;;;;;;;21.25;68.68;101550.84;4975848;28;103842;-47
2022/07/03 00:14:08;;;;;;;5.05;4.00;;;;;;;21.22;68.66;101549.53;4976423;28;102315;-48
2022/07/03 00:16:35;;;;;;;5.95;4.22;;;;;;;21.24;68.71;101552.81;4975209;28;102138;-46
2022/07/03 00:19:02;;;;;;;5.68;4.13;;;;;;;21.25;69.12;101553.59;4984977;28;102710;-49
2022/07/03 00:21:33;;;;;;;4.40;3.67;;;;;;;21.23;68.83;101551.16;4977989;28;103955;-47
2022/07/03 00:24:04;;;;;;;4.68;3.85;;;;;;;21.22;68.66;101552.28;4995554;28;102087;-47
2022/07/03 00:26:35;;;;;;;6.05;3.90;;;;;;;21.23;68.64;101548.38;4995292;28;102482;-47
2022/07/03 00:29:03;;;;;;;5.35;4.10;;;;;;;21.23;68.71;101547.56;4995024;28;102299;-48
2022/07/03 00:31:33;;;;;;;4.50;3.63;;;;;;;21.24;68.81;101540.88;4995318;28;103851;-47
2022/07/03 00:34:01;;;;;;;5.50;3.83;;;;;;;21.23;68.73;101539.25;4993954;28;102234;-47
2022/07/03 00:36:33;;;;;;;4.97;3.88;;;;;;;21.23;68.89;101537.31;4995847;28;102130;-50
2022/07/03 00:39:02;;;;;;;4.88;3.85;;;;;;;21.23;68.95;101534.53;4995737;28;102126;-49
2022/07/03 00:41:30;;;;;;;5.97;4.07;;;;;;;21.23;68.79;101534.53;4995392;28;103921;-49
2022/07/03 00:43:57;;;;;;;4.47;4.05;;;;;;;21.22;68.73;101526.56;4995631;28;102010;-46
2022/07/03 00:46:24;;;;;;;4.40;3.70;;;;;;;21.22;69.03;101527.38;4993543;28;102253;-49
2022/07/03 00:48:53;;;;;;;3.97;3.50;;;;;;;21.22;69.05;101523.81;4994597;28;102358;-48
2022/07/03 00:51:21;;;;;;;;;;;;;;;21.21;68.81;101520.22;4980566;28;103838;-48
2022/07/03 00:53:51;;;;;;;5.30;3.90;;;;;;;21.21;68.49;101520.22;4994986;28;102201;-47
2022/07/03 00:56:23;;;;;;;4.22;3.83;;;;;;;21.22;68.71;101524.59;4993966;28;101985;-47
2022/07/03 00:58:51;;;;;;;4.28;3.63;;;;;;;21.21;68.58;101525.75;4995122;28;102209;-48
2022/07/03 01:01:19;;;;;;;5.32;4.03;;;;;;;21.21;68.34;101520.22;4994910;28;104070;-47
2022/07/03 01:03:47;;;;;;;5.68;3.65;;;;;;;21.20;68.41;101524.09;4995803;28;102428;-46
2022/07/03 01:06:15;;;;;;;5.75;4.10;;;;;;;21.21;68.54;101519.41;4994214;28;102488;-48
2022/07/03 01:08:45;;;;;;;5.28;3.92;;;;;;;21.20;68.33;101518.56;4996101;28;102199;-47
2022/07/03 01:11:25;;;;;;;7.00;4.40;;;;;;;21.21;68.56;101513.88;4994610;28;104152;-46
2022/07/03 01:14:05;;;;;;;6.10;4.30;;;;;;;21.21;68.41;101519.41;4995295;28;102396;-46
2022/07/03 01:16:38;;;;;;;5.18;3.88;;;;;;;21.21;68.33;101520.22;4990064;28;103760;-46
2022/07/03 01:19:15;;;;;;;5.85;4.10;;;;;;;21.21;68.41;101513.88;4996205;28;101963;-46
2022/07/03 01:21:50;;;;;;;5.50;4.10;;;;;;;21.22;68.35;101516.31;4994579;28;103704;-47
2022/07/03 01:24:45;;;;;;;4.50;3.60;;;;;;;21.21;68.42;101514.69;4995521;28;102149;-49
2022/07/03 01:27:19;;;;;;;5.00;3.75;;;;;;;21.22;68.37;101515.50;4976706;28;102674;-46
2022/07/03 01:29:56;;;;;;;4.20;3.80;;;;;;;21.21;68.37;101513.88;4995703;28;102499;-48
2022/07/03 01:32:27;;;;;;;4.95;3.78;;;;;;;21.20;68.61;101504.72;4994892;28;103948;-48
2022/07/03 01:34:55;;;;;;;4.32;3.92;;;;;;;21.20;68.35;101515.81;4993323;28;102349;-48
2022/07/03 01:37:27;;;;;;;5.50;3.95;;;;;;;21.20;68.34;101518.56;4995006;28;102198;-46
2022/07/03 01:39:57;;;;;;;4.68;3.72;;;;;;;21.20;68.22;101515.81;4995911;28;102579;-46
2022/07/03 01:42:28;;;;;;;4.35;3.95;;;;;;;21.20;68.45;101509.47;4994492;28;103889;-47
2022/07/03 01:44:58;;;;;;;5.30;3.88;;;;;;;21.20;68.35;101506.69;4993821;28;102344;-48
2022/07/03 01:47:25;;;;;;;6.07;3.90;;;;;;;21.18;68.35;101507.03;4994930;28;101929;-49
2022/07/03 01:49:53;;;;;;;6.50;3.88;;;;;;;21.20;68.34;101501.16;4995896;28;102359;-50
2022/07/03 01:52:21;;;;;;;4.63;3.85;;;;;;;21.20;68.32;101506.69;4993527;28;103840;-47
2022/07/03 01:54:49;;;;;;;4.10;3.70;;;;;;;21.19;68.84;101508.66;4993420;28;102350;-47
2022/07/03 01:57:16;;;;;;;5.53;3.70;;;;;;;21.18;68.50;101507.03;4993559;28;102163;-46
2022/07/03 01:59:44;;;;;;;4.57;4.13;;;;;;;21.18;68.43;101504.25;4994234;28;102614;-50
2022/07/03 02:02:18;;;;;;;4.30;3.73;;;;;;;21.19;68.39;101505.06;4994672;28;104097;-48
2022/07/03 02:04:58;;;;;;;5.55;3.75;;;;;;;21.19;68.40;101496.75;4992231;28;102354;-49
2022/07/03 02:07:35;;;;;;;4.38;3.95;;;;;;;21.18;68.34;101498.72;4987716;28;102468;-46
2022/07/03 02:10:05;;;;;;;4.50;3.90;;;;;;;21.18;68.32;101497.91;4995569;28;102099;-48
2022/07/03 02:12:38;;;;;;;5.70;3.60;;;;;;;21.19;68.44;101502.31;4993600;28;104036;-46
2022/07/03 02:15:09;;;;;;;9.35;4.07;;;;;;;21.17;68.33;101494.34;4993408;28;102364;-46
2022/07/03 02:17:38;;;;;;;6.22;3.80;;;;;;;21.17;68.50;101491.56;4994282;28;102094;-48
2022/07/03 02:20:07;;;;;;;5.22;4.28;;;;;;;21.18;68.31;101493.19;4994921;28;102226;-49
2022/07/03 02:22:35;;;;;;;4.80;4.13;;;;;;;21.17;68.47;101494.34;4992877;28;104072;-47
2022/07/03 02:25:04;;;;;;;4.63;4.18;;;;;;;21.18;68.35;101495.16;4974753;28;102256;-47
2022/07/03 02:27:32;;;;;;;;;;;;;;;21.18;68.46;101495.16;4988268;28;102011;-52
2022/07/03 02:30:03;;;;;;;5.70;4.07;;;;;;;21.16;68.68;101506.53;4995975;28;102200;-49
2022/07/03 02:32:36;;;;;;;4.63;4.00;;;;;;;21.16;68.30;101495.44;4993625;28;104257;-51
2022/07/03 02:35:06;;;;;;;5.22;4.70;;;;;;;21.17;68.36;101497.09;4993265;28;102386;-47
2022/07/03 02:37:38;;;;;;;5.78;4.35;;;;;;;21.16;68.56;101495.44;4994366;28;102310;-49
2022/07/03 02:40:08;;;;;;;4.47;4.07;;;;;;;21.16;68.45;101484.38;4995753;28;102047;-47
2022/07/03 02:42:42;;;;;;;5.53;4.80;;;;;;;21.18;68.37;101492.38;4996427;28;103882;-49
2022/07/03 02:45:11;;;;;;;4.75;4.22;;;;;;;21.16;68.27;101489.91;4998024;28;102511;-49
2022/07/03 02:47:45;;;;;;;;;;;;;;;21.17;68.25;101486.03;4997373;28;102016;-48
2022/07/03 02:50:15;;;;;;;6.10;4.30;;;;;;;21.17;68.79;101497.09;4997399;28;102139;-49
2022/07/03 02:52:54;;;;;;;6.13;4.68;;;;;;;21.17;68.18;101491.56;4995221;28;104081;-47
2022/07/03 02:55:38;;;;;;;6.43;4.93;;;;;;;21.17;68.11;101493.50;4996807;28;102556;-49
2022/07/03 02:58:23;;;;;;;5.80;4.35;;;;;;;21.17;68.33;101487.97;4996490;28;101997;-47
2022/07/03 03:00:57;;;;;;;5.15;4.25;;;;;;;21.16;68.43;101495.44;4997403;28;102353;-48
2022/07/03 03:03:29;;;;;;;7.18;4.70;;;;;;;21.16;68.27;101500.19;4996035;28;103815;-48
2022/07/03 03:06:03;;;;;;;6.50;5.25;;;;;;;21.17;68.34;101496.25;4996809;28;102165;-48
2022/07/03 03:08:36;;;;;;;5.90;4.25;;;;;;;21.17;68.33;101499.03;4996889;28;102439;-49
2022/07/03 03:11:07;;;;;;;5.10;4.38;;;;;;;21.16;68.66;101495.44;4997798;28;102268;-46
2022/07/03 03:13:34;;;;;;;5.15;4.22;;;;;;;21.16;68.89;101502.94;4994818;28;103872;-48
2022/07/03 03:16:06;;;;;;;3.90;3.40;;;;;;;21.17;69.06;101494.34;4996797;28;102121;-47
2022/07/03 03:18:37;;;;;;;5.22;3.63;;;;;;;21.16;69.49;101500.97;4997295;28;102575;-49
2022/07/03 03:21:05;;;;;;;4.15;3.15;;;;;;;21.17;69.51;101504.56;4996604;28;102358;-50
2022/07/03 03:23:44;;;;;;;3.88;3.47;;;;;;;21.17;69.80;101499.88;4995611;28;103814;-48
2022/07/03 03:26:11;;;;;;;5.88;3.45;;;;;;;21.17;69.77;101508.16;4997170;28;102167;-49
2022/07/03 03:28:39;;;;;;;3.92;3.50;;;;;;;21.19;69.65;101503.09;4996541;28;102025;-47
2022/07/03 03:31:08;;;;;;;4.38;3.53;;;;;;;21.19;69.51;101502.31;4998262;28;102390;-47
2022/07/03 03:33:40;;;;;;;4.43;3.30;;;;;;;21.19;69.69;101499.53;4995483;28;104074;-49
2022/07/03 03:36:07;;;;;;;15.20;3.60;;;;;;;21.19;69.78;101494.00;4997177;28;101994;-50
2022/07/03 03:38:34;;;;;;;3.70;3.40;;;;;;;21.20;69.67;101501.16;4994492;28;102986;-47
2022/07/03 03:41:02;;;;;;;4.55;3.55;;;;;;;21.20;69.63;101496.44;4997527;28;103588;-49
2022/07/03 03:43:29;;;;;;;6.28;4.30;;;;;;;21.21;69.66;101502.81;4995500;28;104090;-49
2022/07/03 03:45:55;;;;;;;4.30;3.90;;;;;;;21.21;69.84;101498.06;4996497;28;101894;-49
2022/07/03 03:48:22;;;;;;;5.13;3.85;;;;;;;21.21;69.83;101509.16;4997198;28;102453;-47
2022/07/03 03:50:50;;;;;;;3.85;3.38;;;;;;;21.21;69.73;101509.16;4997371;28;102111;-47
2022/07/03 03:53:18;;;;;;;4.07;3.40;;;;;;;21.21;69.87;101500.84;4994013;28;103875;-50
2022/07/03 03:55:59;;;;;;;4.77;3.77;;;;;;;21.22;70.01;101510.78;4994952;28;102480;-47
2022/07/03 03:58:26;;;;;;;4.10;3.55;;;;;;;21.22;69.97;101505.22;4996492;28;101872;-49
2022/07/03 04:00:54;;;;;;;3.92;3.22;;;;;;;21.22;70.22;101502.47;4997514;28;102512;-49
2022/07/03 04:03:21;;;;;;;4.82;3.53;;;;;;;21.23;70.11;101504.09;4995399;28;103919;-47
2022/07/03 04:05:47;;;;;;;4.68;3.97;;;;;;;21.23;70.14;101501.31;4997201;28;102550;-49
2022/07/03 04:08:16;;;;;;;4.00;3.25;;;;;;;21.23;70.11;101501.31;4982644;28;102267;-47
2022/07/03 04:10:42;;;;;;;3.70;3.30;;;;;;;21.25;70.21;101496.28;4976867;28;102613;-49
2022/07/03 04:13:09;;;;;;;3.70;3.30;;;;;;;21.25;70.04;101504.59;4981558;28;103871;-48
2022/07/03 04:15:35;;;;;;;4.03;3.60;;;;;;;21.26;70.05;101506.22;4995215;28;102437;-49
2022/07/03 04:18:02;;;;;;;3.38;3.08;;;;;;;21.27;70.24;101495.94;4996444;28;102389;-48
2022/07/03 04:20:30;;;;;;;4.05;3.20;;;;;;;21.26;70.13;101503.44;4995859;28;102306;-49
2022/07/03 04:22:57;;;;;;;4.25;3.58;;;;;;;21.27;70.15;101504.25;4994627;28;103477;-50
2022/07/03 04:25:25;;;;;;;4.25;3.25;;;;;;;21.28;70.24;101492.88;4996026;28;102392;-48
2022/07/03 04:27:52;;;;;;;3.53;3.22;;;;;;;21.28;70.23;101494.81;4996314;28;102432;-48
2022/07/03 04:30:19;;;;;;;3.67;3.38;;;;;;;21.30;70.17;101495.31;4995194;28;102336;-48
2022/07/03 04:32:46;;;;;;;4.05;3.47;;;;;;;21.30;70.13;101500.84;4994684;28;103929;-47
2022/07/03 04:35:13;;;;;;;3.45;3.15;;;;;;;21.31;70.30;101495.00;4996307;28;102079;-48
2022/07/03 04:37:40;;;;;;;3.60;3.30;;;;;;;21.32;70.06;101498.56;4995729;28;102384;-48
2022/07/03 04:40:08;;;;;;;3.40;3.10;;;;;;;21.32;70.04;101499.38;4996380;28;102201;-47
2022/07/03 04:42:36;;;;;;;4.10;3.45;;;;;;;21.31;70.11;101503.31;4994640;28;103896;-47
2022/07/03 04:45:04;;;;;;;3.33;2.87;;;;;;;21.32;70.10;101499.38;4996187;28;102403;-46
2022/07/03 04:47:31;;;;;;;3.90;3.00;;;;;;;21.32;70.07;101499.38;4995800;28;103265;-50
2022/07/03 04:49:58;;;;;;;3.45;3.15;;;;;;;21.33;69.97;101497.44;4996469;28;102307;-48
2022/07/03 04:52:24;;;;;;;4.10;3.50;;;;;;;21.35;70.14;101501.53;4993499;28;103801;-50
2022/07/03 04:54:52;;;;;;;5.28;3.13;;;;;;;21.35;70.04;101495.19;4994781;28;102103;-47
2022/07/03 04:57:19;;;;;;;3.65;3.13;;;;;;;21.35;70.04;101498.78;4994181;28;102396;-48
2022/07/03 04:59:47;;;;;;;3.30;3.00;;;;;;;21.37;70.16;101503.97;4992242;28;102253;-49
2022/07/03 05:02:14;;;;;;;4.07;3.20;;;;;;;21.39;70.14;101503.66;4994142;28;103926;-50
2022/07/03 05:04:40;;;;;;;3.45;2.83;;;;;;;21.39;70.01;101501.69;4991953;28;102106;-47
2022/07/03 05:07:10;;;;;;;3.38;2.80;;;;;;;21.41;69.89;101495.81;4995213;28;102359;-47
2022/07/03 05:09:37;;;;;;;4.95;3.28;;;;;;;21.41;69.96;101493.88;4996377;28;102158;-48
2022/07/03 05:12:05;;;;;;;3.30;3.00;;;;;;;21.42;70.07;101503.81;4995070;28;103893;-46
2022/07/03 05:14:32;;;;;;;3.77;3.23;;;;;;;21.45;69.96;101494.03;4993656;28;102212;-47
2022/07/03 05:17:00;;;;;;;3.38;2.95;;;;;;;21.47;70.07;101500.06;4995576;28;102561;-46
2022/07/03 05:19:27;;;;;;;3.65;2.90;;;;;;;21.49;70.03;101497.78;4996252;28;102195;-49
2022/07/03 05:21:53;;;;;;;3.20;2.90;;;;;;;21.49;70.01;101503.31;4993892;28;104078;-48
2022/07/03 05:24:21;;;;;;;3.70;3.00;;;;;;;21.52;69.85;101508.19;4994530;28;102066;-49
2022/07/03 05:26:48;;;;;;;3.95;2.92;;;;;;;21.52;70.05;101499.88;4994921;28;102283;-46
2022/07/03 05:29:15;;;;;;;4.88;3.00;;;;;;;21.52;69.90;101502.66;4995792;28;102385;-47
2022/07/03 05:31:41;;;;;;;5.25;3.22;;;;;;;21.53;69.98;101505.13;4994608;28;104006;-47
2022/07/03 05:34:09;;;;;;;4.00;2.70;;;;;;;21.55;70.04;101502.81;4995670;28;102243;-49
2022/07/03 05:36:36;;;;;;;4.07;2.93;;;;;;;21.58;69.72;101501.34;4995055;28;102253;-46
2022/07/03 05:41:47;;;;;;;2.83;2.60;;;;;;;21.65;69.74;101507.22;4995367;28;103990;-49
2022/07/03 05:44:14;;;;;;;4.25;3.10;;;;;;;21.66;69.49;101503.31;4994813;28;102484;-48
2022/07/03 05:46:40;;;;;;;3.10;2.80;;;;;;;21.67;69.65;101504.13;4994900;28;102426;-49
2022/07/03 05:49:09;;;;;;;3.30;2.70;;;;;;;21.69;69.66;101505.41;4994735;28;102341;-49
2022/07/03 05:51:36;;;;;;;3.58;3.28;;;;;;;21.69;69.49;101507.38;4994329;28;103919;-48
2022/07/03 05:54:03;;;;;;;3.55;2.78;;;;;;;21.70;69.54;101512.59;4993626;28;102378;-49
2022/07/03 05:56:29;;;;;;;2.85;2.60;;;;;;;21.71;69.56;101505.91;4994146;28;102269;-49
2022/07/03 05:58:55;;;;;;;3.00;2.80;;;;;;;21.74;69.53;101515.50;4995753;28;102754;-49
2022/07/03 06:01:23;;;;;;;3.15;2.85;;;;;;;21.73;69.35;101509.16;4994898;28;103966;-48
2022/07/03 06:03:49;;;;;;;3.17;2.88;;;;;;;21.74;69.45;101518.28;4994830;28;102310;-48
2022/07/03 06:06:18;;;;;;;3.97;2.80;;;;;;;21.76;69.45;101514.06;4994207;28;102639;-47
2022/07/03 06:08:45;;;;;;;3.15;2.70;;;;;;;21.80;69.25;101503.94;4996208;28;101967;-46
2022/07/03 06:11:11;;;;;;;3.65;3.25;;;;;;;21.81;69.33;101510.28;4991104;28;104478;-48
2022/07/03 06:13:38;;;;;;;3.00;2.70;;;;;;;21.83;69.26;101502.47;4991740;28;102254;-47
2022/07/03 06:16:06;;;;;;;4.15;3.00;;;;;;;21.84;69.11;101502.13;4996420;28;101881;-46
2022/07/03 06:18:32;;;;;;;2.67;2.45;;;;;;;21.88;69.09;101509.78;4995971;28;103570;-47
2022/07/03 06:20:58;;;;;;;3.33;2.80;;;;;;;21.90;69.12;101501.97;4997242;28;103866;-47
2022/07/03 06:23:26;;;;;;;3.30;2.90;;;;;;;21.90;69.15;101496.44;4997523;28;102737;-46
2022/07/03 06:25:53;;;;;;;3.13;2.63;;;;;;;21.90;69.00;101496.44;4998418;28;102480;-48
2022/07/03 06:28:19;;;;;;;4.32;2.80;;;;;;;21.91;69.05;101503.59;4998486;28;102538;-48
2022/07/03 06:30:45;;;;;;;3.33;2.72;;;;;;;21.90;69.18;101496.44;4996804;28;103992;-48
2022/07/03 06:33:12;;;;;;;4.57;2.63;;;;;;;21.93;69.03;101501.31;4997186;28;102332;-49
2022/07/03 06:35:43;;;;;;;3.22;2.28;;;;;;;21.90;68.91;101490.91;4995527;28;102398;-50
2022/07/03 06:38:10;;;;;;;3.55;2.80;;;;;;;21.91;68.74;101486.97;4999672;28;102532;-49
2022/07/03 06:40:37;;;;;;;3.17;2.58;;;;;;;21.94;68.85;101491.84;4996927;28;104058;-48
2022/07/03 06:43:04;;;;;;;2.70;2.50;;;;;;;21.93;69.18;101484.69;4998817;28;102114;-49
2022/07/03 06:45:31;;;;;;;5.65;2.75;;;;;;;21.95;69.07;101485.16;4995920;28;101986;-49
2022/07/03 06:47:58;;;;;;;3.28;2.97;;;;;;;21.95;68.92;101491.50;4998008;28;102540;-46
2022/07/03 06:50:25;;;;;;;3.35;2.88;;;;;;;21.95;68.84;101485.97;4995683;28;104062;-48
2022/07/03 06:52:51;;;;;;;2.65;2.35;;;;;;;21.96;68.84;101481.25;4996909;28;102485;-47
2022/07/03 06:55:18;;;;;;;3.40;3.10;;;;;;;21.96;68.94;101484.00;4996699;28;102632;-46
2022/07/03 06:57:45;;;;;;;2.83;2.50;;;;;;;21.96;68.73;101489.56;4996816;28;102299;-46
2022/07/03 07:00:12;;;;;;;3.80;2.50;;;;;;;21.97;68.95;101492.00;4995908;28;103918;-46
2022/07/03 07:02:39;;;;;;;3.40;2.60;;;;;;;21.99;68.67;101488.91;4996636;28;102254;-47
2022/07/03 07:05:06;;;;;;;3.63;2.60;;;;;;;21.96;69.03;101484.84;4996694;28;102214;-46
2022/07/03 07:07:33;;;;;;;2.97;2.65;;;;;;;21.98;68.85;101487.28;4999199;28;102276;-47
2022/07/03 07:09:59;;;;;;;3.35;2.88;;;;;;;21.99;68.97;101477.81;4996645;28;103920;-47
2022/07/03 07:12:26;;;;;;;3.38;2.60;;;;;;;21.99;68.63;101478.63;4993052;28;102192;-46
2022/07/03 07:14:54;;;;;;;3.70;2.50;;;;;;;22.01;68.75;101481.09;4996205;28;102413;-47
2022/07/03 07:17:20;;;;;;;3.77;2.93;;;;;;;22.02;68.83;101479.94;4997795;28;102146;-49
2022/07/03 07:19:47;;;;;;;4.18;2.45;;;;;;;22.04;68.80;101483.19;4995312;28;104067;-47
2022/07/03 07:22:13;;;;;;;2.95;2.67;;;;;;;22.02;68.91;101482.69;4996375;28;102652;-50
2022/07/03 07:24:40;;;;;;;3.03;2.25;;;;;;;22.05;68.77;101479.28;4995527;28;102092;-48
2022/07/03 07:27:06;;;;;;;3.40;2.55;;;;;;;22.06;68.71;101484.47;4997337;28;102387;-46
2022/07/03 07:29:33;;;;;;;5.20;2.55;;;;;;;22.05;68.67;101479.28;4995999;28;103894;-48
2022/07/03 07:32:01;;;;;;;2.95;2.60;;;;;;;22.04;68.58;101472.13;4997657;28;102157;-46
2022/07/03 07:34:27;;;;;;;2.60;2.33;;;;;;;22.04;68.74;101480.44;4995669;28;102464;-49
2022/07/03 07:36:54;;;;;;;3.03;2.72;;;;;;;22.03;68.74;101468.53;4993733;28;102674;-47
2022/07/03 07:39:20;;;;;;;3.05;2.80;;;;;;;22.03;68.79;101474.06;4994827;28;103954;-47
2022/07/03 07:41:46;;;;;;;2.60;2.40;;;;;;;22.03;68.75;101473.22;4991928;28;104739;-48
2022/07/03 07:44:13;;;;;;;2.72;2.50;;;;;;;22.03;68.64;101451.06;4994098;28;102414;-46
2022/07/03 07:46:40;;;;;;;3.40;2.95;;;;;;;22.06;68.70;101459.53;4996264;28;102308;-47
2022/07/03 07:49:08;;;;;;;2.92;2.40;;;;;;;22.08;68.59;101459.22;4993810;28;104113;-46
2022/07/03 07:51:36;;;;;;;3.20;2.90;;;;;;;22.07;68.52;101455.63;4995399;28;102320;-46
2022/07/03 07:54:02;;;;;;;2.75;2.47;;;;;;;22.08;68.48;101457.25;4995839;28;102326;-48
2022/07/03 07:56:29;;;;;;;3.75;2.40;;;;;;;22.10;68.40;101459.69;4996036;28;102759;-47
2022/07/03 07:58:55;;;;;;;2.40;2.25;;;;;;;22.10;68.59;101468.00;4995680;28;103881;-47
2022/07/03 08:06:53;;;;;;;3.05;2.85;;;;;;;22.10;68.52;101459.69;4996867;28;102224;-49
2022/07/03 08:09:19;;;;;;;2.90;2.60;;;;;;;22.09;68.40;101458.06;4994771;28;103936;-47
2022/07/03 08:11:46;;;;;;;3.45;2.42;;;;;;;22.12;68.55;101462.94;4995515;28;102846;-49
2022/07/03 08:14:12;;;;;;;3.00;2.60;;;;;;;22.14;68.39;101462.59;4995401;28;102272;-47
2022/07/03 08:16:39;;;;;;;3.35;2.53;;;;;;;22.13;68.48;101461.78;4992160;28;102339;-50
2022/07/03 08:19:05;;;;;;;2.60;2.40;;;;;;;22.15;68.38;101453.19;4994522;28;103416;-50
2022/07/03 08:21:33;;;;;;;3.15;2.72;;;;;;;22.12;68.11;101451.84;4995841;28;102228;-49
2022/07/03 08:24:00;;;;;;;2.60;2.40;;;;;;;22.14;68.40;101454.28;4994805;28;102285;-52
2022/07/03 08:26:26;;;;;;;3.58;3.28;;;;;;;22.15;68.24;101458.72;4996243;28;102127;-49
2022/07/03 08:28:53;;;;;;;2.63;2.42;;;;;;;22.13;68.71;101453.47;4994417;28;103921;-50
2022/07/03 08:31:20;;;;;;;4.95;2.80;;;;;;;22.14;68.12;101449.59;4993825;28;103182;-49
2022/07/03 08:33:46;;;;;;;3.28;2.58;;;;;;;22.16;68.30;101450.06;4992861;28;102033;-47
2022/07/03 08:36:13;;;;;;;5.38;2.50;;;;;;;22.14;68.34;101451.50;4996149;28;102316;-50
2022/07/03 08:38:41;;;;;;;2.95;2.60;;;;;;;22.14;68.31;101452.34;4995077;28;103891;-47
2022/07/03 08:41:08;;;;;;;3.43;2.63;;;;;;;22.15;68.25;101459.53;4995429;28;102153;-49
2022/07/03 08:43:38;;;;;;;2.67;2.47;;;;;;;22.16;68.36;101461.16;4994075;28;102024;-49
2022/07/03 08:46:06;;;;;;;3.03;2.63;;;;;;;22.19;68.40;101457.72;4995537;28;102446;-47
2022/07/03 08:48:35;;;;;;;4.40;2.92;;;;;;;22.20;68.31;101455.78;4994316;28;106431;-48
2022/07/03 08:51:01;;;;;;;3.55;3.05;;;;;;;22.20;68.41;101456.56;4995360;28;102178;-49
2022/07/03 08:53:28;;;;;;;3.42;2.90;;;;;;;22.20;68.40;101451.03;4993411;28;102518;-49
2022/07/03 08:55:56;;;;;;;2.90;2.70;;;;;;;22.17;68.26;101451.69;4995546;28;102257;-47
2022/07/03 08:58:23;;;;;;;3.13;2.83;;;;;;;22.17;68.03;101448.91;4991490;28;103999;-49
2022/07/03 09:00:49;;;;;;;3.42;3.10;;;;;;;22.16;68.31;101444.53;4993225;28;102066;-48
2022/07/03 09:03:16;;;;;;;4.05;2.95;;;;;;;22.17;68.26;101451.69;4994880;28;102199;-47
2022/07/03 09:05:43;;;;;;;3.08;2.78;;;;;;;22.14;68.39;101441.25;4996934;28;102161;-49
2022/07/03 09:08:10;;;;;;;5.15;3.25;;;;;;;22.14;68.39;101444.03;4995663;28;104134;-48
2022/07/03 09:10:36;;;;;;;2.75;2.55;;;;;;;22.14;68.18;101446.81;4992780;28;102464;-47
2022/07/03 09:13:07;;;;;;;3.30;3.00;;;;;;;22.14;68.37;101457.91;4991273;28;102538;-47
2022/07/03 09:15:34;;;;;;;3.85;2.83;;;;;;;22.15;68.46;101451.22;4995954;28;102486;-49
2022/07/03 09:18:02;;;;;;;3.10;2.80;;;;;;;22.15;68.25;101454.00;4995339;28;103953;-49
2022/07/03 09:20:31;;;;;;;2.92;2.65;;;;;;;22.15;68.18;101448.47;4996031;28;102232;-49
2022/07/03 09:23:15;;;;;;;3.60;3.20;;;;;;;22.15;68.42;101451.22;4995025;28;102140;-46
2022/07/03 09:25:55;;;;;;;3.13;2.83;;;;;;;22.13;68.35;101445.16;4996832;28;102214;-47
2022/07/03 09:28:41;;;;;;;5.30;3.00;;;;;;;22.14;68.42;101446.81;4995323;28;107731;-47
2022/07/03 09:31:07;;;;;;;3.40;2.95;;;;;;;22.15;68.37;101448.47;4995423;28;102540;-48
2022/07/03 09:33:34;;;;;;;3.33;3.03;;;;;;;22.14;68.39;101441.25;4995586;28;101916;-47
2022/07/03 09:36:02;;;;;;;3.83;2.80;;;;;;;22.15;68.53;101454.00;4996668;28;102426;-48
2022/07/03 09:38:29;;;;;;;3.80;3.17;;;;;;;22.14;68.57;101446.81;4995157;28;104016;-47
2022/07/03 09:40:57;;;;;;;3.95;3.25;;;;;;;22.11;68.55;101441.09;4995810;28;102266;-46
2022/07/03 09:43:28;;;;;;;3.45;3.15;;;;;;;22.12;68.52;101442.72;4994990;28;102239;-49
2022/07/03 09:45:56;;;;;;;3.40;3.10;;;;;;;22.10;68.49;101439.47;4991340;28;102379;-47
2022/07/03 09:48:28;;;;;;;3.30;3.00;;;;;;;22.11;68.64;101441.09;4993219;28;103864;-46
2022/07/03 09:51:19;;;;;;;3.75;3.10;;;;;;;22.10;68.51;101440.28;4997342;28;102907;-47
2022/07/03 09:53:50;;;;;;;4.70;2.92;;;;;;;22.12;68.47;101449.09;4998785;28;102189;-48
2022/07/03 09:56:18;;;;;;;4.10;2.80;;;;;;;22.14;68.55;101449.59;4999102;28;102363;-48
2022/07/03 09:59:09;;;;;;;3.00;2.70;;;;;;;22.12;68.48;101438.00;4997694;28;103809;-49
2022/07/03 10:01:37;;;;;;;3.17;2.90;;;;;;;22.12;68.57;101440.75;4999340;28;102356;-49
2022/07/03 10:04:12;;;;;;;3.00;2.80;;;;;;;22.14;68.65;101435.72;4993771;28;102298;-49
2022/07/03 10:06:51;;;;;;;3.30;3.00;;;;;;;22.10;68.48;101443.03;4999586;28;102278;-49
2022/07/03 10:09:19;;;;;;;3.35;2.90;;;;;;;22.09;68.36;101433.13;4998233;28;107928;-48
2022/07/03 10:11:46;;;;;;;4.57;3.13;;;;;;;22.08;68.53;101425.94;4997634;28;102335;-48
2022/07/03 10:14:15;;;;;;;2.75;2.55;;;;;;;22.10;68.45;101429.19;4997495;28;102537;-49
2022/07/03 10:16:43;;;;;;;3.20;2.90;;;;;;;22.08;68.65;101440.63;4979145;28;102155;-47
2022/07/03 10:19:14;;;;;;;4.47;3.20;;;;;;;22.08;68.57;101437.03;4994790;28;103940;-47
2022/07/03 10:21:42;;;;;;;3.72;3.28;;;;;;;22.06;68.69;101428.22;4998569;28;102454;-46
2022/07/03 10:24:10;;;;;;;3.38;3.17;;;;;;;22.04;68.68;101431.34;4998502;28;102223;-46
2022/07/03 10:26:38;;;;;;;4.10;3.20;;;;;;;22.04;68.68;101430.53;4998598;28;102158;-48
2022/07/03 10:29:08;;;;;;;5.07;2.92;;;;;;;22.06;68.57;101422.69;4998342;28;103959;-49
2022/07/03 10:31:37;;;;;;;3.65;3.05;;;;;;;22.04;68.66;101419.44;4998826;28;102170;-46
2022/07/03 10:34:04;;;;;;;3.72;3.08;;;;;;;22.05;68.57;101418.28;4998460;28;101893;-46
2022/07/03 10:36:33;;;;;;;5.32;3.30;;;;;;;22.05;68.42;101421.06;4998758;28;102524;-47
2022/07/03 10:39:05;;;;;;;3.53;3.00;;;;;;;22.04;68.55;101420.25;4996333;28;103394;-47
2022/07/03 10:47:36;;;;;;;3.70;3.40;;;;;;;22.01;68.57;101414.56;4997189;28;102899;-47
2022/07/03 10:50:06;;;;;;;3.67;3.38;;;;;;;21.99;68.39;101411.28;4996022;28;104086;-48
2022/07/03 10:52:32;;;;;;;4.70;3.17;;;;;;;21.98;68.61;101406.91;4997152;28;102348;-50
2022/07/03 10:55:01;;;;;;;3.95;3.33;;;;;;;21.97;68.47;101403.34;4992790;28;103089;-47
2022/07/03 10:57:27;;;;;;;4.35;3.10;;;;;;;21.97;68.54;101408.88;4995895;28;102434;-47
2022/07/03 11:00:05;;;;;;;3.40;3.05;;;;;;;21.97;68.51;101408.06;4996339;28;108084;-47
2022/07/03 11:02:46;;;;;;;3.60;3.30;;;;;;;21.95;68.34;101404.78;4995482;28;102526;-46
2022/07/03 11:05:20;;;;;;;3.63;3.33;;;;;;;21.97;68.37;101405.28;4991872;28;102634;-46
2022/07/03 11:08:07;;;;;;;4.03;2.95;;;;;;;21.93;68.51;101407.09;4997216;28;102327;-47
2022/07/03 11:10:40;;;;;;;3.55;3.25;;;;;;;21.91;68.29;101404.66;4990700;28;103888;-48
2022/07/03 11:13:25;;;;;;;3.83;3.40;;;;;;;21.88;67.93;101397.00;4996377;28;102279;-46
2022/07/03 11:15:53;;;;;;;3.88;2.88;;;;;;;21.87;68.23;101400.09;4996134;28;102047;-49
2022/07/03 11:18:28;;;;;;;7.50;3.47;;;;;;;21.90;68.04;101402.22;4994597;28;102437;-50
2022/07/03 11:21:16;;;;;;;3.65;3.17;;;;;;;21.92;68.14;101392.41;4983242;28;103916;-49
2022/07/03 11:24:01;;;;;;;4.88;3.38;;;;;;;21.93;68.26;101396.03;4981401;28;102053;-46
2022/07/03 11:26:27;;;;;;;3.60;3.25;;;;;;;21.90;68.59;101377.28;4989237;28;102858;-48
2022/07/03 11:28:54;;;;;;;4.15;3.28;;;;;;;21.87;68.31;101386.25;4997210;28;104950;-47
2022/07/03 11:31:23;;;;;;;3.55;2.78;;;;;;;21.85;68.36;101383.78;4997840;28;103827;-49
2022/07/03 11:33:58;;;;;;;3.28;2.97;;;;;;;21.87;68.01;101384.28;4996565;28;102287;-47
2022/07/03 11:36:25;;;;;;;3.40;3.10;;;;;;;21.86;68.41;101390.19;4997429;28;102451;-49
2022/07/03 11:39:13;;;;;;;4.55;3.00;;;;;;;21.88;68.39;101388.69;4998844;28;102131;-48
2022/07/03 11:41:44;;;;;;;3.28;2.97;;;;;;;21.90;68.32;101374.50;4995762;28;103814;-48